createdAt,value
2018-12-22T00:00:37.351Z,12.15
2018-12-22T00:01:39.791Z,12.12
2018-12-22T00:02:42.629Z,12.11
2018-12-22T00:03:45.120Z,12.12
2018-12-22T00:04:47.699Z,12.17
2018-12-22T00:05:50.194Z,12.15
2018-12-22T00:06:52.643Z,12.09
2018-12-22T00:07:55.082Z,12.15
2018-12-22T00:08:57.604Z,12.16
2018-12-22T00:10:00.052Z,12.15
2018-12-22T00:11:02.497Z,12.15
2018-12-22T00:12:04.974Z,12.16
2018-12-22T00:13:07.476Z,12.11
2018-12-22T00:14:09.993Z,12.16
2018-12-22T00:15:12.478Z,12.14
2018-12-22T00:16:14.915Z,12.16
2018-12-22T00:17:17.359Z,12.19
2018-12-22T00:18:19.799Z,12.26
2018-12-22T00:19:22.368Z,12.24
2018-12-22T00:20:24.855Z,12.26
2018-12-22T00:21:27.295Z,12.23
2018-12-22T00:22:29.751Z,12.17
2018-12-22T00:23:32.221Z,12.18
2018-12-22T00:24:34.688Z,12.13
2018-12-22T00:25:37.152Z,12.10
2018-12-22T00:26:39.582Z,12.15
2018-12-22T00:27:42.051Z,12.08
2018-12-22T00:28:44.488Z,12.14
2018-12-22T00:29:46.985Z,12.07
2018-12-22T00:30:49.543Z,12.08
2018-12-22T00:31:51.991Z,12.13
2018-12-22T00:32:54.433Z,12.10
2018-12-22T00:33:56.904Z,12.11
2018-12-22T00:34:59.431Z,12.07
2018-12-22T00:36:01.903Z,12.05
2018-12-22T00:37:04.363Z,12.07
2018-12-22T00:38:06.803Z,12.08
2018-12-22T00:39:09.255Z,12.10
2018-12-22T00:40:11.710Z,12.06
2018-12-22T00:41:14.214Z,11.99
2018-12-22T00:42:16.661Z,11.98
2018-12-22T00:43:19.105Z,11.97
2018-12-22T00:44:21.534Z,12.02
2018-12-22T00:45:24.011Z,11.99
2018-12-22T00:46:26.474Z,12.04
2018-12-22T00:47:28.912Z,11.99
2018-12-22T00:48:31.355Z,11.96
2018-12-22T00:49:33.820Z,11.87
2018-12-22T00:50:36.279Z,11.83
2018-12-22T00:51:38.748Z,11.78
2018-12-22T00:52:41.194Z,11.79
2018-12-22T00:53:43.759Z,11.79
2018-12-22T00:54:46.211Z,11.76
2018-12-22T00:55:48.704Z,11.77
2018-12-22T00:56:51.168Z,11.79
2018-12-22T00:57:53.613Z,11.73
2018-12-22T00:58:56.070Z,11.77
2018-12-22T00:59:58.501Z,11.76
2018-12-22T01:01:00.968Z,11.73
2018-12-22T01:02:03.576Z,11.68
2018-12-22T01:03:06.006Z,11.71
2018-12-22T01:04:08.463Z,11.73
2018-12-22T01:05:10.899Z,11.73
2018-12-22T01:06:13.362Z,11.70
2018-12-22T01:07:15.836Z,11.71
2018-12-22T01:08:18.290Z,11.68
2018-12-22T01:09:21.420Z,11.64
2018-12-22T01:10:23.891Z,11.62
2018-12-22T01:11:26.347Z,11.60
2018-12-22T01:12:28.856Z,11.57
2018-12-22T01:13:31.291Z,11.65
2018-12-22T01:14:33.785Z,11.58
2018-12-22T01:15:36.222Z,11.51
2018-12-22T01:16:38.674Z,11.57
2018-12-22T01:17:41.118Z,11.58
2018-12-22T01:18:43.579Z,11.64
2018-12-22T01:19:46.567Z,11.63
2018-12-22T01:20:49.008Z,11.56
2018-12-22T01:21:51.487Z,11.51
2018-12-22T01:22:54.017Z,11.53
2018-12-22T01:23:56.610Z,11.56
2018-12-22T01:24:59.047Z,11.55
2018-12-22T01:26:01.494Z,11.55
2018-12-22T01:27:04.420Z,11.54
2018-12-22T01:28:06.880Z,11.58
2018-12-22T01:29:09.316Z,11.53
2018-12-22T01:30:11.761Z,11.59
2018-12-22T01:31:14.210Z,11.59
2018-12-22T01:32:16.672Z,11.59
2018-12-22T01:33:19.147Z,11.59
2018-12-22T01:34:22.265Z,11.63
2018-12-22T01:35:24.730Z,11.63
2018-12-22T01:36:27.320Z,11.64
2018-12-22T01:37:29.804Z,11.64
2018-12-22T01:38:32.251Z,11.58
2018-12-22T01:39:34.704Z,11.49
2018-12-22T01:40:37.389Z,11.50
2018-12-22T01:41:39.857Z,11.50
2018-12-22T01:42:42.318Z,11.52
2018-12-22T01:43:44.807Z,11.52
2018-12-22T01:44:47.250Z,11.50
2018-12-22T01:45:49.697Z,11.49
2018-12-22T01:46:52.145Z,11.51
2018-12-22T01:47:54.594Z,11.48
2018-12-22T01:48:57.068Z,11.48
2018-12-22T01:49:59.515Z,11.46
2018-12-22T01:51:01.958Z,11.45
2018-12-22T01:52:04.489Z,11.45
2018-12-22T01:53:06.945Z,11.43
2018-12-22T01:54:09.397Z,11.43
2018-12-22T01:55:11.827Z,11.45
2018-12-22T01:56:14.263Z,11.42
2018-12-22T01:57:16.705Z,11.32
2018-12-22T01:58:19.172Z,11.37
2018-12-22T01:59:21.633Z,11.40
2018-12-22T02:00:24.076Z,11.43
2018-12-22T02:01:26.575Z,11.41
2018-12-22T02:02:29.052Z,11.43
2018-12-22T02:03:31.515Z,11.45
2018-12-22T02:04:34.000Z,11.38
2018-12-22T02:05:36.432Z,11.43
2018-12-22T02:06:38.991Z,11.42
2018-12-22T02:07:41.544Z,11.46
2018-12-22T02:08:44.009Z,11.51
2018-12-22T02:09:46.491Z,11.54
2018-12-22T02:10:49.053Z,11.52
2018-12-22T02:11:51.481Z,11.59
2018-12-22T02:12:53.927Z,11.59
2018-12-22T02:13:56.476Z,11.46
2018-12-22T02:14:58.911Z,11.50
2018-12-22T02:16:01.345Z,11.53
2018-12-22T02:17:03.783Z,11.49
2018-12-22T02:18:06.220Z,11.46
2018-12-22T02:19:08.683Z,11.43
2018-12-22T02:20:11.149Z,11.52
2018-12-22T02:21:13.686Z,11.57
2018-12-22T02:22:16.251Z,11.55
2018-12-22T02:23:18.706Z,11.47
2018-12-22T02:24:21.162Z,11.47
2018-12-22T02:25:23.619Z,11.51
2018-12-22T02:26:26.076Z,11.57
2018-12-22T02:27:28.523Z,11.61
2018-12-22T02:28:30.966Z,11.60
2018-12-22T02:29:33.434Z,11.63
2018-12-22T02:30:35.900Z,11.58
2018-12-22T02:31:38.346Z,11.60
2018-12-22T02:32:40.786Z,11.57
2018-12-22T02:33:43.233Z,11.58
2018-12-22T02:34:45.695Z,11.61
2018-12-22T02:35:48.159Z,11.57
2018-12-22T02:36:50.610Z,11.56
2018-12-22T02:37:53.067Z,11.57
2018-12-22T02:38:55.517Z,11.56
2018-12-22T02:39:58.024Z,11.59
2018-12-22T02:41:00.546Z,11.58
2018-12-22T02:42:02.984Z,11.64
2018-12-22T02:43:05.427Z,11.67
2018-12-22T02:44:07.901Z,11.66
2018-12-22T02:45:10.351Z,11.66
2018-12-22T02:46:12.809Z,11.62
2018-12-22T02:47:15.263Z,11.60
2018-12-22T02:48:17.707Z,11.65
2018-12-22T02:49:20.175Z,11.66
2018-12-22T02:50:22.694Z,11.65
2018-12-22T02:51:25.159Z,11.57
2018-12-22T02:52:27.592Z,11.61
2018-12-22T02:53:30.029Z,11.66
2018-12-22T02:54:32.474Z,11.68
2018-12-22T02:55:34.928Z,11.66
2018-12-22T02:56:37.396Z,11.58
2018-12-22T02:57:39.832Z,11.61
2018-12-22T02:58:42.288Z,11.65
2018-12-22T02:59:44.740Z,11.65
2018-12-22T03:00:47.194Z,11.61
2018-12-22T03:01:49.644Z,11.65
2018-12-22T03:02:52.081Z,11.70
2018-12-22T03:03:54.520Z,11.68
2018-12-22T03:04:56.956Z,11.69
2018-12-22T03:05:59.407Z,11.72
2018-12-22T03:07:01.878Z,11.78
2018-12-22T03:08:04.331Z,11.80
2018-12-22T03:09:06.781Z,11.75
2018-12-22T03:10:09.227Z,11.77
2018-12-22T03:11:11.698Z,11.72
2018-12-22T03:12:14.161Z,11.68
2018-12-22T03:13:16.602Z,11.67
2018-12-22T03:14:19.057Z,11.76
2018-12-22T03:15:21.505Z,11.70
2018-12-22T03:16:23.988Z,11.70
2018-12-22T03:17:26.549Z,11.72
2018-12-22T03:18:29.010Z,11.77
2018-12-22T03:19:31.455Z,11.75
2018-12-22T03:20:33.921Z,11.77
2018-12-22T03:21:36.398Z,11.79
2018-12-22T03:22:38.865Z,11.80
2018-12-22T03:23:41.335Z,11.79
2018-12-22T03:24:43.783Z,11.80
2018-12-22T03:25:46.229Z,11.77
2018-12-22T03:26:48.695Z,11.84
2018-12-22T03:27:51.135Z,11.83
2018-12-22T03:28:53.572Z,11.86
2018-12-22T03:29:56.109Z,11.80
2018-12-22T03:30:58.590Z,11.82
2018-12-22T03:32:01.061Z,11.70
2018-12-22T03:33:03.510Z,11.76
2018-12-22T03:34:06.062Z,11.77
2018-12-22T03:35:08.516Z,11.79
2018-12-22T03:36:10.961Z,11.77
2018-12-22T03:37:13.416Z,11.77
2018-12-22T03:38:15.888Z,11.77
2018-12-22T03:39:18.335Z,11.80
2018-12-22T03:40:20.891Z,11.78
2018-12-22T03:41:23.340Z,11.81
2018-12-22T03:42:25.796Z,11.77
2018-12-22T03:43:28.239Z,11.73
2018-12-22T03:44:30.704Z,11.78
2018-12-22T03:45:33.135Z,11.79
2018-12-22T03:46:35.572Z,11.86
2018-12-22T03:47:38.046Z,11.81
2018-12-22T03:48:40.505Z,11.80
2018-12-22T03:49:42.961Z,11.79
2018-12-22T03:50:45.408Z,11.79
2018-12-22T03:51:47.856Z,11.79
2018-12-22T03:52:50.321Z,11.80
2018-12-22T03:53:52.782Z,11.78
2018-12-22T03:54:55.214Z,11.80
2018-12-22T03:55:57.661Z,11.78
2018-12-22T03:57:00.110Z,11.79
2018-12-22T03:58:02.574Z,11.80
2018-12-22T03:59:05.040Z,11.83
2018-12-22T04:00:07.506Z,11.77
2018-12-22T04:01:09.964Z,11.87
2018-12-22T04:02:12.406Z,11.93
2018-12-22T04:03:14.866Z,11.99
2018-12-22T04:04:17.327Z,11.94
2018-12-22T04:05:19.873Z,11.92
2018-12-22T04:06:22.329Z,11.94
2018-12-22T04:07:24.772Z,11.99
2018-12-22T04:08:27.218Z,11.95
2018-12-22T04:09:29.687Z,11.92
2018-12-22T04:10:32.141Z,11.97
2018-12-22T04:11:34.638Z,11.92
2018-12-22T04:12:37.080Z,11.92
2018-12-22T04:13:39.542Z,12.00
2018-12-22T04:14:42.303Z,12.01
2018-12-22T04:15:44.746Z,11.98
2018-12-22T04:16:47.210Z,11.98
2018-12-22T04:17:49.649Z,11.96
2018-12-22T04:18:52.225Z,12.01
2018-12-22T04:19:54.759Z,12.04
2018-12-22T04:20:57.223Z,12.00
2018-12-22T04:21:59.814Z,12.02
2018-12-22T04:23:02.259Z,11.96
2018-12-22T04:24:04.815Z,12.00
2018-12-22T04:25:07.292Z,12.04
2018-12-22T04:26:09.739Z,12.01
2018-12-22T04:27:12.179Z,11.99
2018-12-22T04:28:14.619Z,12.01
2018-12-22T04:29:17.079Z,12.02
2018-12-22T04:30:19.544Z,12.03
2018-12-22T04:31:22.003Z,12.00
2018-12-22T04:32:24.448Z,11.98
2018-12-22T04:33:26.918Z,12.04
2018-12-22T04:34:29.368Z,12.07
2018-12-22T04:35:31.819Z,12.11
2018-12-22T04:36:34.421Z,12.10
2018-12-22T04:37:36.855Z,12.09
2018-12-22T04:38:39.326Z,12.09
2018-12-22T04:39:41.790Z,12.13
2018-12-22T04:40:44.256Z,12.14
2018-12-22T04:41:46.706Z,12.20
2018-12-22T04:42:49.163Z,12.20
2018-12-22T04:43:51.599Z,12.14
2018-12-22T04:44:54.055Z,12.15
2018-12-22T04:45:56.527Z,12.15
2018-12-22T04:46:58.987Z,12.12
2018-12-22T04:48:01.426Z,12.11
2018-12-22T04:49:03.866Z,12.15
2018-12-22T04:50:06.400Z,12.18
2018-12-22T04:51:08.855Z,12.16
2018-12-22T04:52:11.292Z,12.13
2018-12-22T04:53:13.731Z,12.17
2018-12-22T04:54:16.170Z,12.17
2018-12-22T04:55:18.616Z,12.24
2018-12-22T04:56:21.073Z,12.28
2018-12-22T04:57:23.502Z,12.27
2018-12-22T04:58:25.947Z,12.33
2018-12-22T04:59:28.381Z,12.35
2018-12-22T05:00:30.839Z,12.34
2018-12-22T05:01:33.287Z,12.26
2018-12-22T05:02:35.726Z,12.30
2018-12-22T05:03:38.189Z,12.33
2018-12-22T05:04:40.640Z,12.34
2018-12-22T05:05:43.096Z,12.37
2018-12-22T05:06:45.565Z,12.33
2018-12-22T05:07:47.999Z,12.38
2018-12-22T05:08:50.451Z,12.38
2018-12-22T05:09:52.880Z,12.41
2018-12-22T05:10:55.343Z,12.36
2018-12-22T05:11:57.812Z,12.35
2018-12-22T05:13:00.255Z,12.43
2018-12-22T05:14:02.691Z,12.41
2018-12-22T05:15:07.142Z,12.40
2018-12-22T05:16:09.607Z,12.37
2018-12-22T05:17:12.063Z,12.41
2018-12-22T05:18:14.541Z,12.32
2018-12-22T05:19:16.975Z,12.37
2018-12-22T05:20:19.447Z,12.33
2018-12-22T05:21:21.939Z,12.39
2018-12-22T05:22:24.379Z,12.40
2018-12-22T05:23:26.833Z,12.38
2018-12-22T05:24:29.260Z,12.36
2018-12-22T05:25:31.704Z,12.36
2018-12-22T05:26:34.150Z,12.44
2018-12-22T05:27:36.595Z,12.46
2018-12-22T05:28:39.483Z,12.45
2018-12-22T05:29:41.931Z,12.44
2018-12-22T05:30:44.375Z,12.40
2018-12-22T05:31:46.835Z,12.43
2018-12-22T05:32:49.300Z,12.42
2018-12-22T05:33:51.743Z,12.43
2018-12-22T05:34:55.406Z,12.40
2018-12-22T05:35:58.159Z,12.39
2018-12-22T05:37:00.600Z,12.37
2018-12-22T05:38:03.078Z,12.35
2018-12-22T05:39:06.297Z,12.38
2018-12-22T05:40:08.736Z,12.43
2018-12-22T05:41:11.171Z,12.41
2018-12-22T05:42:13.635Z,12.43
2018-12-22T05:43:16.100Z,12.37
2018-12-22T05:44:18.565Z,12.40
2018-12-22T05:45:21.018Z,12.38
2018-12-22T05:46:23.471Z,12.35
2018-12-22T05:47:25.946Z,12.37
2018-12-22T05:48:28.411Z,12.39
2018-12-22T05:49:30.868Z,12.44
2018-12-22T05:50:33.299Z,12.46
2018-12-22T05:51:35.738Z,12.47
2018-12-22T05:52:38.199Z,12.52
2018-12-22T05:53:40.663Z,12.41
2018-12-22T05:54:43.104Z,12.47
2018-12-22T05:55:45.540Z,12.44
2018-12-22T05:56:47.967Z,12.45
2018-12-22T05:57:50.419Z,12.48
2018-12-22T05:58:52.875Z,12.40
2018-12-22T06:00:00.337Z,12.41
2018-12-22T06:00:59.878Z,12.48
2018-12-22T06:02:02.321Z,12.53
2018-12-22T06:03:04.793Z,12.52
2018-12-22T06:04:07.256Z,12.51
2018-12-22T06:05:10.696Z,12.50
2018-12-22T06:06:13.133Z,12.55
2018-12-22T06:07:15.571Z,12.58
2018-12-22T06:08:18.040Z,12.52
2018-12-22T06:09:20.515Z,12.54
2018-12-22T06:10:22.977Z,12.56
2018-12-22T06:11:25.428Z,12.57
2018-12-22T06:12:28.571Z,12.55
2018-12-22T06:13:31.024Z,12.59
2018-12-22T06:14:33.492Z,12.56
2018-12-22T06:15:35.940Z,12.53
2018-12-22T06:16:38.404Z,12.50
2018-12-22T06:17:40.839Z,12.48
2018-12-22T06:18:43.312Z,12.55
2018-12-22T06:19:45.800Z,12.53
2018-12-22T06:20:48.251Z,12.50
2018-12-22T06:21:50.690Z,12.53
2018-12-22T06:22:53.127Z,12.60
2018-12-22T06:23:55.599Z,12.57
2018-12-22T06:24:58.075Z,12.57
2018-12-22T06:26:00.521Z,12.61
2018-12-22T06:27:02.969Z,12.61
2018-12-22T06:28:05.455Z,12.58
2018-12-22T06:29:07.955Z,12.62
2018-12-22T06:30:10.414Z,12.60
2018-12-22T06:31:12.849Z,12.62
2018-12-22T06:32:15.300Z,12.64
2018-12-22T06:33:17.767Z,12.59
2018-12-22T06:34:20.247Z,12.57
2018-12-22T06:35:22.692Z,12.58
2018-12-22T06:36:25.142Z,12.59
2018-12-22T06:37:27.587Z,12.54
2018-12-22T06:38:30.035Z,12.60
2018-12-22T06:39:32.516Z,12.61
2018-12-22T06:40:34.985Z,12.56
2018-12-22T06:41:37.469Z,12.52
2018-12-22T06:42:39.951Z,12.50
2018-12-22T06:43:42.403Z,12.52
2018-12-22T06:44:44.865Z,12.58
2018-12-22T06:45:47.639Z,12.57
2018-12-22T06:46:50.118Z,12.56
2018-12-22T06:47:53.769Z,12.55
2018-12-22T06:48:56.465Z,12.58
2018-12-22T06:49:59.029Z,12.59
2018-12-22T06:51:01.612Z,12.56
2018-12-22T06:52:04.137Z,12.53
2018-12-22T06:53:06.575Z,12.53
2018-12-22T06:54:09.018Z,12.51
2018-12-22T06:55:11.479Z,12.54
2018-12-22T06:56:13.923Z,12.53
2018-12-22T06:57:16.363Z,12.57
2018-12-22T06:58:18.847Z,12.61
2018-12-22T06:59:21.295Z,12.65
2018-12-22T07:00:23.776Z,12.55
2018-12-22T07:01:26.246Z,12.58
2018-12-22T07:02:28.678Z,12.66
2018-12-22T07:03:31.110Z,12.71
2018-12-22T07:04:33.552Z,12.65
2018-12-22T07:05:36.018Z,12.65
2018-12-22T07:06:38.470Z,12.64
2018-12-22T07:07:40.936Z,12.60
2018-12-22T07:08:43.635Z,12.50
2018-12-22T07:09:46.786Z,12.54
2018-12-22T07:10:50.331Z,12.56
2018-12-22T07:11:54.933Z,12.56
2018-12-22T07:12:58.489Z,12.58
2018-12-22T07:14:00.947Z,12.54
2018-12-22T07:15:04.059Z,12.52
2018-12-22T07:16:07.517Z,12.58
2018-12-22T07:17:11.769Z,12.57
2018-12-22T07:18:14.755Z,12.58
2018-12-22T07:19:17.963Z,12.53
2018-12-22T07:20:21.117Z,12.55
2018-12-22T07:21:25.213Z,12.57
2018-12-22T07:22:29.550Z,12.57
2018-12-22T07:23:32.408Z,12.62
2018-12-22T07:24:36.023Z,12.65
2018-12-22T07:25:39.580Z,12.59
2018-12-22T07:26:42.059Z,12.57
2018-12-22T07:27:47.112Z,12.56
2018-12-22T07:28:50.244Z,12.57
2018-12-22T07:29:52.990Z,12.61
2018-12-22T07:30:55.927Z,12.63
2018-12-22T07:31:58.428Z,12.58
2018-12-22T07:33:00.967Z,12.54
2018-12-22T07:34:03.470Z,12.55
2018-12-22T07:35:06.155Z,12.52
2018-12-22T07:36:08.713Z,12.52
2018-12-22T07:37:11.972Z,12.54
2018-12-22T07:38:14.685Z,12.57
2018-12-22T07:39:18.008Z,12.59
2018-12-22T07:40:20.748Z,12.61
2018-12-22T07:41:25.015Z,12.60
2018-12-22T07:42:27.579Z,12.63
2018-12-22T07:43:30.086Z,12.57
2018-12-22T07:44:34.069Z,12.56
2018-12-22T07:45:36.509Z,12.59
2018-12-22T07:46:39.021Z,12.60
2018-12-22T07:47:42.428Z,12.60
2018-12-22T07:48:45.122Z,12.56
2018-12-22T07:49:47.768Z,12.61
2018-12-22T07:50:50.702Z,12.54
2018-12-22T07:51:53.813Z,12.55
2018-12-22T07:52:57.401Z,12.58
2018-12-22T07:53:59.878Z,12.57
2018-12-22T07:55:02.330Z,12.58
2018-12-22T07:56:05.275Z,12.59
2018-12-22T07:57:09.666Z,12.59
2018-12-22T07:58:12.424Z,12.55
2018-12-22T07:59:14.959Z,12.59
2018-12-22T08:00:18.076Z,12.60
2018-12-22T08:01:21.429Z,12.61
2018-12-22T08:02:23.890Z,12.64
2018-12-22T08:03:26.391Z,12.66
2018-12-22T08:04:29.836Z,12.65
2018-12-22T08:05:38.558Z,12.64
2018-12-22T08:06:36.920Z,12.66
2018-12-22T08:07:39.454Z,12.66
2018-12-22T08:08:41.955Z,12.61
2018-12-22T08:09:44.391Z,12.61
2018-12-22T08:10:47.379Z,12.63
2018-12-22T08:11:51.011Z,12.60
2018-12-22T08:12:53.677Z,12.64
2018-12-22T08:13:56.380Z,12.64
2018-12-22T08:14:59.632Z,12.63
2018-12-22T08:16:02.101Z,12.64
2018-12-22T08:17:04.630Z,12.63
2018-12-22T08:18:07.482Z,12.62
2018-12-22T08:19:13.797Z,12.59
2018-12-22T08:20:16.312Z,12.64
2018-12-22T08:21:20.047Z,12.65
2018-12-22T08:22:23.124Z,12.65
2018-12-22T08:23:26.229Z,12.64
2018-12-22T08:24:28.859Z,12.64
2018-12-22T08:25:31.330Z,12.63
2018-12-22T08:26:33.873Z,12.58
2018-12-22T08:27:36.341Z,12.61
2018-12-22T08:28:38.879Z,12.61
2018-12-22T08:29:41.332Z,12.55
2018-12-22T08:30:44.016Z,12.57
2018-12-22T08:31:46.646Z,12.59
2018-12-22T08:32:49.172Z,12.59
2018-12-22T08:33:51.830Z,12.61
2018-12-22T08:34:54.321Z,12.60
2018-12-22T08:35:56.815Z,12.61
2018-12-22T08:36:59.261Z,12.53
2018-12-22T08:38:01.711Z,12.54
2018-12-22T08:39:05.824Z,12.57
2018-12-22T08:40:09.389Z,12.52
2018-12-22T08:41:11.887Z,12.52
2018-12-22T08:42:14.349Z,12.52
2018-12-22T08:43:16.813Z,12.50
2018-12-22T08:44:19.368Z,12.49
2018-12-22T08:45:21.826Z,12.47
2018-12-22T08:46:24.424Z,12.37
2018-12-22T08:47:26.921Z,12.28
2018-12-22T08:48:29.372Z,12.37
2018-12-22T08:49:31.808Z,12.38
2018-12-22T08:50:34.268Z,12.43
2018-12-22T08:51:36.712Z,12.39
2018-12-22T08:52:39.144Z,12.41
2018-12-22T08:53:41.681Z,12.42
2018-12-22T08:54:45.138Z,12.42
2018-12-22T08:55:47.603Z,12.38
2018-12-22T08:56:50.063Z,12.30
2018-12-22T08:57:52.610Z,12.32
2018-12-22T08:58:55.116Z,12.31
2018-12-22T08:59:57.575Z,12.24
2018-12-22T09:01:00.049Z,12.24
2018-12-22T09:02:02.508Z,12.13
2018-12-22T09:03:04.943Z,12.25
2018-12-22T09:04:07.383Z,12.24
2018-12-22T09:05:09.831Z,12.32
2018-12-22T09:06:12.289Z,12.29
2018-12-22T09:07:14.803Z,12.32
2018-12-22T09:08:17.240Z,12.31
2018-12-22T09:09:19.679Z,12.33
2018-12-22T09:10:22.125Z,12.34
2018-12-22T09:11:24.589Z,12.30
2018-12-22T09:12:27.068Z,12.32
2018-12-22T09:13:29.503Z,12.31
2018-12-22T09:14:31.947Z,12.30
2018-12-22T09:15:34.385Z,12.28
2018-12-22T09:16:36.939Z,12.27
2018-12-22T09:17:39.388Z,12.33
2018-12-22T09:18:41.840Z,12.36
2018-12-22T09:19:44.278Z,12.29
2018-12-22T09:20:46.722Z,12.28
2018-12-22T09:21:49.178Z,12.25
2018-12-22T09:22:51.640Z,12.19
2018-12-22T09:23:54.143Z,12.28
2018-12-22T09:24:56.627Z,12.34
2018-12-22T09:25:59.087Z,12.31
2018-12-22T09:27:01.614Z,12.30
2018-12-22T09:28:04.080Z,12.35
2018-12-22T09:29:06.578Z,12.33
2018-12-22T09:30:10.607Z,12.35
2018-12-22T09:31:13.044Z,12.40
2018-12-22T09:32:15.571Z,12.43
2018-12-22T09:33:18.039Z,12.44
2018-12-22T09:34:20.479Z,12.49
2018-12-22T09:35:22.962Z,12.48
2018-12-22T09:36:25.528Z,12.53
2018-12-22T09:37:27.990Z,12.53
2018-12-22T09:38:30.456Z,12.48
2018-12-22T09:39:32.890Z,12.41
2018-12-22T09:40:35.336Z,12.46
2018-12-22T09:41:37.783Z,12.45
2018-12-22T09:42:40.258Z,12.47
2018-12-22T09:43:42.778Z,12.46
2018-12-22T09:44:45.215Z,12.42
2018-12-22T09:45:47.667Z,12.49
2018-12-22T09:46:50.103Z,12.51
2018-12-22T09:47:52.562Z,12.56
2018-12-22T09:48:55.031Z,12.62
2018-12-22T09:49:57.467Z,12.61
2018-12-22T09:50:59.963Z,12.51
2018-12-22T09:52:02.449Z,12.50
2018-12-22T09:53:04.992Z,12.53
2018-12-22T09:54:07.475Z,12.52
2018-12-22T09:55:09.911Z,12.58
2018-12-22T09:56:12.357Z,12.66
2018-12-22T09:57:14.802Z,12.69
2018-12-22T09:58:17.298Z,12.68
2018-12-22T09:59:19.790Z,12.65
2018-12-22T10:00:22.243Z,12.64
2018-12-22T10:01:25.034Z,12.66
2018-12-22T10:02:27.523Z,12.71
2018-12-22T10:03:29.978Z,12.75
2018-12-22T10:04:32.440Z,12.78
2018-12-22T10:05:36.891Z,12.66
2018-12-22T10:06:39.361Z,12.60
2018-12-22T10:07:41.854Z,12.62
2018-12-22T10:08:44.365Z,12.62
2018-12-22T10:09:46.835Z,12.56
2018-12-22T10:10:49.339Z,12.58
2018-12-22T10:11:51.779Z,12.59
2018-12-22T10:12:54.237Z,12.56
2018-12-22T10:13:56.735Z,12.61
2018-12-22T10:14:59.207Z,12.61
2018-12-22T10:16:01.655Z,12.63
2018-12-22T10:17:04.981Z,12.67
2018-12-22T10:18:07.823Z,12.61
2018-12-22T10:19:10.313Z,12.65
2018-12-22T10:20:12.747Z,12.72
2018-12-22T10:21:15.245Z,12.63
2018-12-22T10:22:17.715Z,12.69
2018-12-22T10:23:20.166Z,12.68
2018-12-22T10:24:22.620Z,12.63
2018-12-22T10:25:25.133Z,12.61
2018-12-22T10:26:27.596Z,12.71
2018-12-22T10:27:30.181Z,12.65
2018-12-22T10:28:32.723Z,12.57
2018-12-22T10:29:35.199Z,12.62
2018-12-22T10:30:37.747Z,12.56
2018-12-22T10:31:40.206Z,12.62
2018-12-22T10:32:42.649Z,12.62
2018-12-22T10:33:45.101Z,12.57
2018-12-22T10:34:47.622Z,12.57
2018-12-22T10:35:50.071Z,12.56
2018-12-22T10:36:52.523Z,12.53
2018-12-22T10:37:54.977Z,12.50
2018-12-22T10:38:57.421Z,12.48
2018-12-22T10:39:59.884Z,12.49
2018-12-22T10:41:02.340Z,12.53
2018-12-22T10:42:04.794Z,12.53
2018-12-22T10:43:07.322Z,12.52
2018-12-22T10:44:09.928Z,12.51
2018-12-22T10:45:12.374Z,12.51
2018-12-22T10:46:14.814Z,12.49
2018-12-22T10:47:17.303Z,12.51
2018-12-22T10:48:19.797Z,12.56
2018-12-22T10:49:22.250Z,12.51
2018-12-22T10:50:24.702Z,12.55
2018-12-22T10:51:27.255Z,12.54
2018-12-22T10:52:29.713Z,12.50
2018-12-22T10:53:32.197Z,12.48
2018-12-22T10:54:34.680Z,12.43
2018-12-22T10:55:37.174Z,12.45
2018-12-22T10:56:39.627Z,12.47
2018-12-22T10:57:42.081Z,12.38
2018-12-22T10:58:44.597Z,12.40
2018-12-22T10:59:47.072Z,12.41
2018-12-22T11:00:49.608Z,12.36
2018-12-22T11:01:52.139Z,12.36
2018-12-22T11:02:54.643Z,12.32
2018-12-22T11:03:57.166Z,12.39
2018-12-22T11:04:59.627Z,12.39
2018-12-22T11:06:02.200Z,12.44
2018-12-22T11:07:04.695Z,12.42
2018-12-22T11:08:07.166Z,12.37
2018-12-22T11:09:09.843Z,12.36
2018-12-22T11:10:15.319Z,12.36
2018-12-22T11:11:17.788Z,12.34
2018-12-22T11:12:20.332Z,12.27
2018-12-22T11:13:22.827Z,12.27
2018-12-22T11:14:25.303Z,12.30
2018-12-22T11:15:27.783Z,12.25
2018-12-22T11:16:30.275Z,12.28
2018-12-22T11:17:32.896Z,12.29
2018-12-22T11:18:35.505Z,12.24
2018-12-22T11:19:38.093Z,12.23
2018-12-22T11:20:40.572Z,12.21
2018-12-22T11:21:43.099Z,12.20
2018-12-22T11:22:45.572Z,12.20
2018-12-22T11:23:48.050Z,12.26
2018-12-22T11:24:50.528Z,12.33
2018-12-22T11:25:53.316Z,12.35
2018-12-22T11:26:55.807Z,12.30
2018-12-22T11:27:58.276Z,12.29
2018-12-22T11:29:00.715Z,12.30
2018-12-22T11:30:03.752Z,12.30
2018-12-22T11:31:06.218Z,12.26
2018-12-22T11:32:08.735Z,12.12
2018-12-22T11:33:11.203Z,12.12
2018-12-22T11:34:13.929Z,12.14
2018-12-22T11:35:16.392Z,12.16
2018-12-22T11:36:18.855Z,12.17
2018-12-22T11:37:21.319Z,12.19
2018-12-22T11:38:23.783Z,12.25
2018-12-22T11:39:26.332Z,12.21
2018-12-22T11:40:28.933Z,12.18
2018-12-22T11:41:31.461Z,12.21
2018-12-22T11:42:33.997Z,12.16
2018-12-22T11:43:36.533Z,12.16
2018-12-22T11:44:38.966Z,12.08
2018-12-22T11:45:41.491Z,12.16
2018-12-22T11:46:43.935Z,12.20
2018-12-22T11:47:48.591Z,12.24
2018-12-22T11:48:51.689Z,12.31
2018-12-22T11:49:54.253Z,12.31
2018-12-22T11:50:56.750Z,12.27
2018-12-22T11:51:59.256Z,12.26
2018-12-22T11:53:01.712Z,12.33
2018-12-22T11:54:04.276Z,12.28
2018-12-22T11:55:07.669Z,12.21
2018-12-22T11:56:10.106Z,12.20
2018-12-22T11:57:12.548Z,12.25
2018-12-22T11:58:15.000Z,12.26
2018-12-22T11:59:17.491Z,12.21
2018-12-22T12:00:20.200Z,12.23
2018-12-22T12:01:22.770Z,12.23
2018-12-22T12:02:25.242Z,12.29
2018-12-22T12:03:27.948Z,12.28
2018-12-22T12:04:30.416Z,12.36
2018-12-22T12:05:32.974Z,12.34
2018-12-22T12:06:35.430Z,12.31
2018-12-22T12:07:37.943Z,12.25
2018-12-22T12:08:40.404Z,12.27
2018-12-22T12:09:42.864Z,12.24
2018-12-22T12:10:45.327Z,12.18
2018-12-22T12:11:47.816Z,12.20
2018-12-22T12:12:50.258Z,12.17
2018-12-22T12:13:52.724Z,12.16
2018-12-22T12:14:55.183Z,12.24
2018-12-22T12:16:00.292Z,12.28
2018-12-22T12:17:04.913Z,12.30
2018-12-22T12:19:53.714Z,12.33
2018-12-22T12:20:56.162Z,12.28
2018-12-22T12:21:58.608Z,12.23
2018-12-22T12:23:01.053Z,12.24
2018-12-22T12:24:03.494Z,12.32
2018-12-22T12:25:06.828Z,12.30
2018-12-22T12:26:09.298Z,12.31
2018-12-22T12:27:11.752Z,12.30
2018-12-22T12:28:14.203Z,12.23
2018-12-22T12:29:16.636Z,12.24
2018-12-22T12:30:19.103Z,12.27
2018-12-22T12:31:21.574Z,12.22
2018-12-22T12:32:24.016Z,12.23
2018-12-22T12:33:26.449Z,12.25
2018-12-22T12:34:28.890Z,12.29
2018-12-22T12:35:31.365Z,12.19
2018-12-22T12:36:33.884Z,12.19
2018-12-22T12:37:36.335Z,12.21
2018-12-22T12:38:38.771Z,12.18
2018-12-22T12:39:41.260Z,12.11
2018-12-22T12:40:43.728Z,12.19
2018-12-22T12:41:46.183Z,12.24
2018-12-22T12:42:48.616Z,12.25
2018-12-22T12:43:51.053Z,12.27
2018-12-22T12:44:53.495Z,12.34
2018-12-22T12:45:55.955Z,12.32
2018-12-22T12:46:58.424Z,12.32
2018-12-22T12:48:00.889Z,12.29
2018-12-22T12:49:03.408Z,12.29
2018-12-22T12:50:10.528Z,12.23
2018-12-22T12:51:12.988Z,12.18
2018-12-22T12:52:15.473Z,12.11
2018-12-22T12:53:17.915Z,12.08
2018-12-22T12:54:20.448Z,12.10
2018-12-22T12:55:22.917Z,12.13
2018-12-22T12:56:25.857Z,12.20
2018-12-22T12:57:28.327Z,12.18
2018-12-22T12:58:30.765Z,12.17
2018-12-22T12:59:33.255Z,12.22
2018-12-22T13:00:35.877Z,12.24
2018-12-22T13:01:38.323Z,12.25
2018-12-22T13:02:40.786Z,12.25
2018-12-22T13:03:43.304Z,12.28
2018-12-22T13:04:45.742Z,12.27
2018-12-22T13:05:48.180Z,12.28
2018-12-22T13:06:50.642Z,12.27
2018-12-22T13:07:53.116Z,12.28
2018-12-22T13:08:55.561Z,12.24
2018-12-22T13:09:58.248Z,12.24
2018-12-22T13:11:00.700Z,12.27
2018-12-22T13:12:04.665Z,12.26
2018-12-22T13:13:14.907Z,12.28
2018-12-22T13:14:17.461Z,12.33
2018-12-22T13:15:19.950Z,12.30
2018-12-22T13:16:22.400Z,12.35
2018-12-22T13:17:24.930Z,12.42
2018-12-22T13:18:27.403Z,12.39
2018-12-22T13:19:29.863Z,12.40
2018-12-22T13:20:32.311Z,12.43
2018-12-22T13:21:34.818Z,12.47
2018-12-22T13:22:37.584Z,12.47
2018-12-22T13:23:40.035Z,12.51
2018-12-22T13:24:42.506Z,12.53
2018-12-22T13:25:45.015Z,12.57
2018-12-22T13:26:47.520Z,12.52
2018-12-22T13:27:50.059Z,12.48